createdAt,value
2023-02-05T00:00:11.223Z,3.80
2023-02-05T00:05:13.143Z,3.30
2023-02-05T00:10:15.253Z,2.95
2023-02-05T00:15:17.180Z,3.42
2023-02-05T00:20:19.246Z,2.53
2023-02-05T00:25:21.521Z,3.13
2023-02-05T00:30:23.565Z,3.72
2023-02-05T00:35:25.681Z,3.85
2023-02-05T00:40:27.469Z,4.18
2023-02-05T00:45:35.577Z,5.13
2023-02-05T00:50:37.994Z,6.05
2023-02-05T00:55:39.922Z,4.25
2023-02-05T01:00:41.964Z,5.70
2023-02-05T01:05:43.850Z,6.18
2023-02-05T01:10:48.495Z,5.85
2023-02-05T01:15:50.564Z,6.55
2023-02-05T01:20:52.683Z,8.73
2023-02-05T01:25:54.534Z,7.47
2023-02-05T01:30:56.756Z,7.53
2023-02-05T01:35:58.844Z,8.23
2023-02-05T01:41:00.971Z,7.65
2023-02-05T01:46:20.847Z,8.55
2023-02-05T01:51:23.650Z,8.27
2023-02-05T01:56:32.051Z,7.22
2023-02-05T02:01:37.931Z,8.95
2023-02-05T02:06:39.614Z,7.72
2023-02-05T02:11:43.690Z,8.95
2023-02-05T02:16:46.030Z,7.38
2023-02-05T02:22:09.679Z,8.13
2023-02-05T02:27:17.490Z,7.93
2023-02-05T02:32:30.051Z,8.95
2023-02-05T02:37:44.392Z,7.57
2023-02-05T02:42:53.665Z,8.05
2023-02-05T02:47:59.365Z,7.63
2023-02-05T02:53:09.802Z,9.18
2023-02-05T02:58:26.140Z,7.97
2023-02-05T03:03:32.352Z,7.93
2023-02-05T03:08:45.285Z,8.10
2023-02-05T03:13:48.328Z,8.02
2023-02-05T03:18:50.916Z,8.07
2023-02-05T03:23:52.855Z,7.78
2023-02-05T03:28:56.539Z,8.23
2023-02-05T03:34:26.142Z,7.57
2023-02-05T03:39:36.379Z,8.25
2023-02-05T03:44:50.052Z,7.13
2023-02-05T03:50:07.693Z,6.85
2023-02-05T03:55:20.476Z,7.13
2023-02-05T04:00:24.647Z,7.07
2023-02-05T04:05:26.498Z,6.63
2023-02-05T04:10:28.203Z,6.57
2023-02-05T04:15:29.929Z,6.30
2023-02-05T04:20:31.942Z,6.47
2023-02-05T04:25:34.309Z,7.00
2023-02-05T04:30:36.455Z,7.15
2023-02-05T04:35:38.404Z,6.20
2023-02-05T04:40:40.458Z,5.15
2023-02-05T04:45:42.234Z,4.82
2023-02-05T04:50:44.393Z,4.57
2023-02-05T04:55:46.428Z,5.20
2023-02-05T05:00:48.437Z,5.00
2023-02-05T05:05:50.530Z,4.75
2023-02-05T05:10:52.354Z,5.22
2023-02-05T05:15:57.362Z,5.00
2023-02-05T05:20:59.689Z,4.93
2023-02-05T05:26:07.857Z,5.43
2023-02-05T05:31:13.846Z,4.10
2023-02-05T05:36:16.343Z,5.03
2023-02-05T05:41:40.705Z,5.22
2023-02-05T05:46:42.625Z,4.65
2023-02-05T05:51:44.570Z,4.55
2023-02-05T05:56:46.617Z,4.25
2023-02-05T06:01:48.434Z,4.10
2023-02-05T06:06:50.287Z,3.72
2023-02-05T06:11:52.345Z,3.88
2023-02-05T06:16:56.025Z,4.88
2023-02-05T06:21:58.116Z,4.03
2023-02-05T06:27:00.002Z,3.45
2023-02-05T06:32:01.905Z,3.47
2023-02-05T06:37:04.151Z,3.53
2023-02-05T06:42:06.619Z,3.38
2023-02-05T06:47:08.568Z,3.95
2023-02-05T06:52:10.451Z,3.65
2023-02-05T06:57:12.551Z,2.85
2023-02-05T07:02:14.981Z,3.33
2023-02-05T07:07:17.528Z,2.53
2023-02-05T07:12:20.057Z,2.60
2023-02-05T07:17:22.389Z,2.63
2023-02-05T07:22:24.847Z,2.83
2023-02-05T07:27:27.106Z,2.75
2023-02-05T07:32:29.007Z,2.38
2023-02-05T07:37:31.078Z,2.78
2023-02-05T07:42:33.054Z,3.42
2023-02-05T07:47:35.137Z,2.15
2023-02-05T07:52:37.274Z,1.73
2023-02-05T07:57:39.150Z,2.47
2023-02-05T08:02:41.392Z,2.33
2023-02-05T08:07:43.201Z,1.60
2023-02-05T08:12:44.967Z,1.25
2023-02-05T08:17:46.833Z,1.05
2023-02-05T08:22:48.906Z,0.60
2023-02-05T08:27:50.866Z,0.60
2023-02-05T08:32:52.831Z,0.60
2023-02-05T08:37:54.726Z,0.50
2023-02-05T08:42:58.160Z,1.25
2023-02-05T08:48:00.200Z,0.82
2023-02-05T08:53:02.616Z,0.70
2023-02-05T08:58:04.666Z,0.45
2023-02-05T09:03:06.895Z,0.32
2023-02-05T09:08:08.750Z,0.60
2023-02-05T09:13:11.438Z,0.85
2023-02-05T09:18:13.858Z,0.50
2023-02-05T09:23:17.425Z,1.33
2023-02-05T09:28:19.617Z,0.95
2023-02-05T09:33:21.655Z,0.52
2023-02-05T09:38:23.450Z,0.40
2023-02-05T09:43:44.345Z,0.88
2023-02-05T09:49:20.697Z,0.60
2023-02-05T09:54:36.955Z,0.55
2023-02-05T09:59:44.414Z,0.57
2023-02-05T10:04:46.406Z,0.70
2023-02-05T10:10:05.177Z,0.60
2023-02-05T10:15:25.853Z,0.93
2023-02-05T10:20:42.088Z,0.70
2023-02-05T10:25:55.264Z,0.90
2023-02-05T10:31:06.265Z,0.65
2023-02-05T10:36:11.610Z,1.00
2023-02-05T10:41:23.040Z,1.20
2023-02-05T10:46:31.500Z,1.60
2023-02-05T10:51:40.847Z,1.10
2023-02-05T10:56:43.738Z,1.35
2023-02-05T11:01:46.493Z,1.02
2023-02-05T11:06:50.773Z,1.42
2023-02-05T11:12:05.274Z,1.02
2023-02-05T11:17:35.159Z,2.30
2023-02-05T11:22:39.982Z,1.27
2023-02-05T11:27:41.988Z,2.20
2023-02-05T11:32:44.309Z,1.85
2023-02-05T11:37:49.101Z,1.67
2023-02-05T11:43:26.438Z,1.40
2023-02-05T11:48:37.824Z,1.88
2023-02-05T11:53:50.669Z,1.52
2023-02-05T11:59:00.469Z,1.70
2023-02-05T12:04:15.094Z,1.90
2023-02-05T12:09:30.251Z,1.63
2023-02-05T12:14:42.341Z,1.60
2023-02-05T12:19:50.027Z,1.65
2023-02-05T12:25:14.459Z,2.55
2023-02-05T12:30:25.101Z,2.45
2023-02-05T12:35:26.983Z,1.52
2023-02-05T12:40:34.559Z,2.03
2023-02-05T12:45:51.507Z,1.98
2023-02-05T12:51:31.142Z,1.65
2023-02-05T12:56:58.474Z,1.35
2023-02-05T13:02:07.647Z,1.42
2023-02-05T13:07:28.158Z,1.77
2023-02-05T13:12:35.972Z,1.40
2023-02-05T13:18:00.773Z,1.40
2023-02-05T13:23:22.182Z,2.17
2023-02-05T13:28:42.229Z,2.30
2023-02-05T13:33:44.799Z,1.75
2023-02-05T13:39:24.364Z,1.90
2023-02-05T13:44:39.997Z,2.67
2023-02-05T13:50:14.331Z,2.42
2023-02-05T13:55:29.375Z,2.03
2023-02-05T14:00:32.289Z,2.25
2023-02-05T14:05:39.772Z,2.22
2023-02-05T14:10:49.485Z,2.35
2023-02-05T14:15:57.737Z,2.33
2023-02-05T14:20:59.605Z,2.10
2023-02-05T14:26:07.796Z,2.28
2023-02-05T14:31:46.153Z,1.65
2023-02-05T14:36:48.092Z,2.17
2023-02-05T14:41:56.137Z,2.15
2023-02-05T14:47:03.210Z,1.15
2023-02-05T14:52:27.158Z,1.90
2023-02-05T14:57:58.918Z,1.10
2023-02-05T15:03:13.181Z,1.23
2023-02-05T15:08:18.971Z,1.83
2023-02-05T15:13:22.854Z,1.63
2023-02-05T15:18:28.923Z,1.92
2023-02-05T15:23:40.990Z,1.35
2023-02-05T15:28:52.254Z,1.50
2023-02-05T15:34:03.002Z,1.52
2023-02-05T15:39:19.992Z,2.33
2023-02-05T15:44:31.048Z,1.35
2023-02-05T15:49:38.431Z,2.00
2023-02-05T15:54:40.744Z,1.40
2023-02-05T15:59:42.620Z,2.08
2023-02-05T16:04:45.013Z,2.03
2023-02-05T16:09:49.059Z,1.92
2023-02-05T16:15:02.024Z,1.75
2023-02-05T16:20:23.381Z,2.15
2023-02-05T16:25:46.509Z,1.90
2023-02-05T16:30:50.883Z,2.03
2023-02-05T16:35:53.644Z,1.67
2023-02-05T16:40:59.497Z,1.73
2023-02-05T16:46:07.544Z,1.05
2023-02-05T16:51:28.342Z,1.38
2023-02-05T16:56:36.551Z,1.77
2023-02-05T17:01:43.091Z,1.20
2023-02-05T17:06:44.928Z,1.40
2023-02-05T17:11:46.896Z,1.80
2023-02-05T17:17:03.016Z,2.05
2023-02-05T17:22:11.006Z,1.55
2023-02-05T17:27:27.118Z,1.30
2023-02-05T17:32:30.259Z,1.20
2023-02-05T17:37:32.048Z,1.58
2023-02-05T17:42:33.781Z,1.00
2023-02-05T17:47:35.755Z,1.83
2023-02-05T17:52:38.042Z,1.05
2023-02-05T17:57:40.933Z,1.25
2023-02-05T18:02:43.094Z,1.38
2023-02-05T18:07:57.068Z,1.17
2023-02-05T18:12:59.312Z,1.73
2023-02-05T18:18:01.428Z,2.03
2023-02-05T18:23:04.016Z,1.92
2023-02-05T18:28:06.150Z,2.25
2023-02-05T18:33:08.481Z,1.23
2023-02-05T18:38:10.426Z,2.08
2023-02-05T18:43:13.461Z,2.05
2023-02-05T18:48:15.624Z,1.25
2023-02-05T18:53:17.466Z,1.40
2023-02-05T18:58:19.324Z,2.22
2023-02-05T19:03:21.263Z,2.15
2023-02-05T19:08:23.380Z,1.85
2023-02-05T19:13:25.122Z,2.45
2023-02-05T19:18:26.894Z,2.30
2023-02-05T19:23:29.298Z,2.20
2023-02-05T19:28:32.634Z,3.03
2023-02-05T19:33:35.800Z,2.13
2023-02-05T19:38:40.025Z,2.38
2023-02-05T19:43:52.122Z,1.70
2023-02-05T19:48:56.148Z,2.55
2023-02-05T19:53:59.779Z,1.83
2023-02-05T19:59:02.056Z,2.38
2023-02-05T20:04:17.587Z,3.63
2023-02-05T20:09:20.134Z,2.33
2023-02-05T20:14:23.351Z,1.75
2023-02-05T20:19:25.301Z,2.40
2023-02-05T20:24:27.468Z,1.73
2023-02-05T20:29:48.205Z,1.50
2023-02-05T20:34:50.534Z,2.78
2023-02-05T20:39:52.451Z,2.40
2023-02-05T20:44:54.484Z,2.60
2023-02-05T20:49:56.418Z,2.17
2023-02-05T20:54:58.412Z,3.00
2023-02-05T21:00:00.232Z,2.42
2023-02-05T21:05:02.278Z,2.45
2023-02-05T21:10:05.942Z,3.13
2023-02-05T21:15:08.274Z,2.25
2023-02-05T21:20:10.573Z,2.63
2023-02-05T21:25:12.311Z,2.42
2023-02-05T21:30:14.335Z,2.60
2023-02-05T21:35:16.476Z,2.95
2023-02-05T21:40:18.650Z,2.78
2023-02-05T21:45:20.649Z,3.17
2023-02-05T21:50:22.553Z,1.13
2023-02-05T21:55:27.336Z,2.30
2023-02-05T22:00:29.229Z,1.30
2023-02-05T22:05:31.313Z,2.22
2023-02-05T22:10:33.616Z,2.58
2023-02-05T22:15:36.067Z,3.05
2023-02-05T22:20:38.493Z,3.17
2023-02-05T22:25:46.589Z,1.98
2023-02-05T22:30:48.693Z,2.95
2023-02-05T22:35:54.284Z,2.83
2023-02-05T22:40:56.157Z,2.30
2023-02-05T22:46:06.506Z,2.75
2023-02-05T22:51:11.305Z,2.33
2023-02-05T22:56:13.718Z,3.58
2023-02-05T23:01:17.363Z,2.65
2023-02-05T23:06:32.710Z,3.08
2023-02-05T23:11:35.888Z,2.70
2023-02-05T23:16:41.433Z,2.92
2023-02-05T23:21:43.876Z,2.40
2023-02-05T23:26:48.625Z,2.33
2023-02-05T23:31:50.535Z,2.85
2023-02-05T23:36:52.536Z,1.95
2023-02-05T23:41:54.271Z,2.40
2023-02-05T23:46:56.212Z,2.33
2023-02-05T23:51:58.576Z,2.05
2023-02-05T23:57:00.408Z,2.83
